Terminal Aerodrome Forecast
Issued by NWS Spokane, WA

Current Version | Previous Version | Text Only | Print | Product List | Glossary On
Versions: 1 2 3 4 5 6 7 8 9 10 11 12 13 14
000
FTUS46 KOTX 251720
TAFGEG
TAF
KGEG 251720Z 2518/2618 06006KT P6SM FEW040 FEW250
     FM252200 29006KT P6SM SCT250
     FM260300 18005KT P6SM FEW150 SCT200
     FM261200 17006KT P6SM BKN200=

USA.gov is the U.S. government's official web portal to all federal, state and local government web resources and services.